Aeroporto :







RITROVATECI SU...

 
LOGIN :

Iscrizione | Disclaimer

   EN    FR    IT 

 









Sommario :    VFR   VFR Marginale   IFR   IFR Intensivo   IFR Molto Intensivo
Visibilità : 
Base nubi : 
>= 8 km
>= 3000ft
5 / 8 km
1000 / 3000 ft
1500m / 5 km
500 / 1000 ft
800 / 1500m
200 / 500 ft
< 800m
< 200 ft
Simboli :   Temporali  Nebbia  Neve Forte  Precipitazioni Forti  Vento > 20 kt







- Altitudine del aeroporto : 171 ft
- Codice IATA : KEF


BIKF - Keflavik International

ULTIMO METAR :
  • 251300Z 11027KT 7000 -RA SCT015 BKN022 OVC030 10/09 Q0995

METARs OBSOLETI :
  • 251230Z 11027G37KT 9999 -RA FEW015 OVC040 11/07 Q0996
  • 251200Z 11026KT 9999 -RA FEW015 OVC046 10/08 Q0997
  • 251130Z 11023KT 9999 -RA FEW015 OVC040 10/08 Q0998
  • 251101Z 12019KT 7000 -RA SCT015 BKN024 OVC045 10/08 Q0999
  • 251030Z 12020KT 7000 -RA SCT012 OVC040 10/08 Q1000

TAF TAF BIKF
Valido dal 25 a 12 ore il 26 a 12 ore UTC


251101Z 2512/2612 12025G40KT 9999 RA SCT015 BKN020 OVC030 TX12/2518Z TN08/2606Z
BECMG 2512/2514 BKN013 OVC025
TEMPO 2512/2517 5000 RADZ OVC010
BECMG 2518/2520 14018G28KT
TEMPO 2517/2522 3000 RADZ BR OVC005
PROB40
TEMPO 2517/2522 1000 FG VV002
BECMG 2522/2601 9999 SHRA BKN015 OVC025
BECMG 2606/2609 12010KT
BECMG 2610/2612 22015KT
Nessun NOTAM noto per questo aeroporto.



MetMap, La meteo Aeronautica in un colpo d'occhio ! - Copyright ORBIFLY Dicembre 2007 - Disclaimer

ORBIFLY MET'MAP TEAM :

Programmazione e sviluppo : Alexandra Zaïnal
Concezione e sviluppo : Baudouin d'Aumeries
Co-Programmazione e sviluppo : Marc-Olivier Méhu
Supporto tecnico e logistico : Manuel Goepfert
Aiuto per la traduzione : Arnaldo La Scala

Contatto : metmap@orbifly.com




FONTI E CREDITI :

   NOAA